sensor_id;sensor_type;location;lat;lon;timestamp;pressure;altitude;pressure_sealevel;temperature;humidity
62926;BME280;55732;52.248;-0.844;2023-04-21T00:01:12;101027.07;;;6.50;82.16
62926;BME280;55732;52.248;-0.844;2023-04-21T00:03:38;101028.63;;;6.49;81.85
62926;BME280;55732;52.248;-0.844;2023-04-21T00:06:04;101023.20;;;6.49;81.65
62926;BME280;55732;52.248;-0.844;2023-04-21T00:08:34;101016.00;;;6.47;81.66
62926;BME280;55732;52.248;-0.844;2023-04-21T00:11:07;101011.39;;;6.44;81.78
62926;BME280;55732;52.248;-0.844;2023-04-21T00:13:34;101009.20;;;6.41;82.24
62926;BME280;55732;52.248;-0.844;2023-04-21T00:16:00;101001.27;;;6.38;82.07
62926;BME280;55732;52.248;-0.844;2023-04-21T00:18:26;100997.02;;;6.36;82.17
62926;BME280;55732;52.248;-0.844;2023-04-21T00:20:52;100995.42;;;6.34;81.99
62926;BME280;55732;52.248;-0.844;2023-04-21T00:23:17;100986.64;;;6.33;82.32
62926;BME280;55732;52.248;-0.844;2023-04-21T00:25:42;100982.77;;;6.32;82.45
62926;BME280;55732;52.248;-0.844;2023-04-21T00:28:08;100980.43;;;6.29;82.76
62926;BME280;55732;52.248;-0.844;2023-04-21T00:30:33;100978.99;;;6.28;82.80
62926;BME280;55732;52.248;-0.844;2023-04-21T00:32:58;100980.70;;;6.27;82.63
62926;BME280;55732;52.248;-0.844;2023-04-21T00:35:24;100984.02;;;6.26;82.54
62926;BME280;55732;52.248;-0.844;2023-04-21T00:37:50;100989.09;;;6.26;82.30
62926;BME280;55732;52.248;-0.844;2023-04-21T00:40:15;100986.46;;;6.26;82.50
62926;BME280;55732;52.248;-0.844;2023-04-21T00:42:41;100977.71;;;6.25;82.69
62926;BME280;55732;52.248;-0.844;2023-04-21T00:45:06;100978.58;;;6.24;82.51
62926;BME280;55732;52.248;-0.844;2023-04-21T00:47:32;100978.02;;;6.22;82.64
62926;BME280;55732;52.248;-0.844;2023-04-21T00:49:58;100982.36;;;6.22;82.43
62926;BME280;55732;52.248;-0.844;2023-04-21T00:52:23;100973.42;;;6.20;82.65
62926;BME280;55732;52.248;-0.844;2023-04-21T00:54:50;100971.45;;;6.19;82.75
62926;BME280;55732;52.248;-0.844;2023-04-21T00:57:16;100972.46;;;6.17;82.81
62926;BME280;55732;52.248;-0.844;2023-04-21T00:59:41;100964.92;;;6.16;82.82
62926;BME280;55732;52.248;-0.844;2023-04-21T01:02:07;100963.13;;;6.14;82.81
62926;BME280;55732;52.248;-0.844;2023-04-21T01:04:33;100958.55;;;6.12;82.97
62926;BME280;55732;52.248;-0.844;2023-04-21T01:07:04;100956.60;;;6.11;82.79
62926;BME280;55732;52.248;-0.844;2023-04-21T01:09:30;100949.39;;;6.09;82.99
62926;BME280;55732;52.248;-0.844;2023-04-21T01:14:29;100951.75;;;6.06;83.01
62926;BME280;55732;52.248;-0.844;2023-04-21T01:16:55;100950.83;;;6.04;82.84
62926;BME280;55732;52.248;-0.844;2023-04-21T01:19:22;100945.91;;;6.02;82.93
62926;BME280;55732;52.248;-0.844;2023-04-21T01:21:48;100945.71;;;6.01;83.08
62926;BME280;55732;52.248;-0.844;2023-04-21T01:24:13;100940.44;;;6.00;83.19
62926;BME280;55732;52.248;-0.844;2023-04-21T01:26:39;100941.41;;;5.97;83.25
62926;BME280;55732;52.248;-0.844;2023-04-21T01:29:04;100941.34;;;5.94;83.31
62926;BME280;55732;52.248;-0.844;2023-04-21T01:31:29;100935.00;;;5.93;83.23
62926;BME280;55732;52.248;-0.844;2023-04-21T01:33:55;100935.67;;;5.91;83.29
62926;BME280;55732;52.248;-0.844;2023-04-21T01:36:20;100932.11;;;5.88;83.79
62926;BME280;55732;52.248;-0.844;2023-04-21T01:38:46;100925.93;;;5.87;83.75
62926;BME280;55732;52.248;-0.844;2023-04-21T01:41:11;100918.54;;;5.84;83.68
62926;BME280;55732;52.248;-0.844;2023-04-21T01:43:37;100916.23;;;5.83;83.69
62926;BME280;55732;52.248;-0.844;2023-04-21T01:46:03;100909.05;;;5.82;83.50
62926;BME280;55732;52.248;-0.844;2023-04-21T01:48:29;100906.23;;;5.81;83.65
62926;BME280;55732;52.248;-0.844;2023-04-21T01:50:54;100903.41;;;5.80;83.78
62926;BME280;55732;52.248;-0.844;2023-04-21T01:53:20;100900.06;;;5.79;83.60
62926;BME280;55732;52.248;-0.844;2023-04-21T01:55:45;100900.58;;;5.78;83.77
62926;BME280;55732;52.248;-0.844;2023-04-21T01:58:11;100904.56;;;5.76;83.88
62926;BME280;55732;52.248;-0.844;2023-04-21T02:00:36;100902.08;;;5.74;83.98
62926;BME280;55732;52.248;-0.844;2023-04-21T02:03:01;100902.76;;;5.74;84.00
62926;BME280;55732;52.248;-0.844;2023-04-21T02:05:27;100894.17;;;5.73;83.83
62926;BME280;55732;52.248;-0.844;2023-04-21T02:07:52;100889.97;;;5.73;83.90
62926;BME280;55732;52.248;-0.844;2023-04-21T02:10:18;100885.77;;;5.73;83.79
62926;BME280;55732;52.248;-0.844;2023-04-21T02:12:43;100884.86;;;5.71;83.84
62926;BME280;55732;52.248;-0.844;2023-04-21T02:15:09;100880.30;;;5.70;83.92
62926;BME280;55732;52.248;-0.844;2023-04-21T02:17:35;100875.05;;;5.70;83.85
62926;BME280;55732;52.248;-0.844;2023-04-21T02:20:00;100866.48;;;5.70;84.02
62926;BME280;55732;52.248;-0.844;2023-04-21T02:22:26;100868.94;;;5.70;84.06
62926;BME280;55732;52.248;-0.844;2023-04-21T02:24:51;100865.61;;;5.70;84.04
62926;BME280;55732;52.248;-0.844;2023-04-21T02:27:17;100862.64;;;5.70;83.98
62926;BME280;55732;52.248;-0.844;2023-04-21T02:29:42;100857.23;;;5.70;84.04
62926;BME280;55732;52.248;-0.844;2023-04-21T02:32:08;100857.91;;;5.69;84.02
62926;BME280;55732;52.248;-0.844;2023-04-21T02:34:33;100858.08;;;5.69;83.87
62926;BME280;55732;52.248;-0.844;2023-04-21T02:36:59;100851.39;;;5.67;83.93
62926;BME280;55732;52.248;-0.844;2023-04-21T02:39:25;100850.16;;;5.67;83.84
62926;BME280;55732;52.248;-0.844;2023-04-21T02:41:50;100840.91;;;5.66;83.86
62926;BME280;55732;52.248;-0.844;2023-04-21T02:44:15;100836.36;;;5.66;84.15
62926;BME280;55732;52.248;-0.844;2023-04-21T02:46:41;100829.21;;;5.66;84.11
62926;BME280;55732;52.248;-0.844;2023-04-21T02:49:07;100825.20;;;5.67;84.05
62926;BME280;55732;52.248;-0.844;2023-04-21T02:51:33;100820.52;;;5.68;84.02
62926;BME280;55732;52.248;-0.844;2023-04-21T02:53:58;100821.41;;;5.70;84.08
62926;BME280;55732;52.248;-0.844;2023-04-21T02:56:24;100816.70;;;5.70;84.14
62926;BME280;55732;52.248;-0.844;2023-04-21T02:58:49;100816.21;;;5.71;84.25
62926;BME280;55732;52.248;-0.844;2023-04-21T03:01:15;100812.92;;;5.72;84.35
62926;BME280;55732;52.248;-0.844;2023-04-21T03:03:40;100817.82;;;5.73;84.44
62926;BME280;55732;52.248;-0.844;2023-04-21T03:06:06;100823.46;;;5.75;84.75
62926;BME280;55732;52.248;-0.844;2023-04-21T03:08:31;100820.20;;;5.77;84.71
62926;BME280;55732;52.248;-0.844;2023-04-21T03:10:57;100812.55;;;5.80;84.72
62926;BME280;55732;52.248;-0.844;2023-04-21T03:13:23;100811.52;;;5.81;84.72
62926;BME280;55732;52.248;-0.844;2023-04-21T03:15:49;100807.39;;;5.84;84.70
62926;BME280;55732;52.248;-0.844;2023-04-21T03:18:15;100805.89;;;5.87;84.79
62926;BME280;55732;52.248;-0.844;2023-04-21T03:20:40;100805.61;;;5.89;85.04
62926;BME280;55732;52.248;-0.844;2023-04-21T03:23:06;100807.41;;;5.92;84.99
62926;BME280;55732;52.248;-0.844;2023-04-21T03:25:31;100801.71;;;5.95;85.01
62926;BME280;55732;52.248;-0.844;2023-04-21T03:27:57;100792.52;;;5.97;85.28
62926;BME280;55732;52.248;-0.844;2023-04-21T03:30:23;100786.13;;;6.01;85.13
62926;BME280;55732;52.248;-0.844;2023-04-21T03:32:50;100774.65;;;6.04;85.19
62926;BME280;55732;52.248;-0.844;2023-04-21T03:35:15;100769.29;;;6.07;85.28
62926;BME280;55732;52.248;-0.844;2023-04-21T03:37:41;100759.02;;;6.09;85.14
62926;BME280;55732;52.248;-0.844;2023-04-21T03:40:07;100751.92;;;6.12;85.22
62926;BME280;55732;52.248;-0.844;2023-04-21T03:42:35;100751.61;;;6.15;85.38
62926;BME280;55732;52.248;-0.844;2023-04-21T03:45:05;100749.58;;;6.18;85.27
62926;BME280;55732;52.248;-0.844;2023-04-21T03:47:31;100744.92;;;6.22;85.32
62926;BME280;55732;52.248;-0.844;2023-04-21T03:49:57;100744.81;;;6.26;85.46
62926;BME280;55732;52.248;-0.844;2023-04-21T03:52:23;100739.13;;;6.30;85.47
62926;BME280;55732;52.248;-0.844;2023-04-21T03:54:48;100720.67;;;6.33;85.50
62926;BME280;55732;52.248;-0.844;2023-04-21T03:57:14;100716.73;;;6.38;85.42
62926;BME280;55732;52.248;-0.844;2023-04-21T03:59:40;100712.08;;;6.43;85.50
62926;BME280;55732;52.248;-0.844;2023-04-21T04:02:06;100708.12;;;6.46;85.60
62926;BME280;55732;52.248;-0.844;2023-04-21T04:04:31;100707.64;;;6.48;85.49
62926;BME280;55732;52.248;-0.844;2023-04-21T04:06:56;100711.52;;;6.51;85.83
62926;BME280;55732;52.248;-0.844;2023-04-21T04:09:22;100702.14;;;6.54;85.72
62926;BME280;55732;52.248;-0.844;2023-04-21T04:11:48;100702.17;;;6.57;85.92
62926;BME280;55732;52.248;-0.844;2023-04-21T04:14:13;100700.14;;;6.60;85.80
62926;BME280;55732;52.248;-0.844;2023-04-21T04:16:38;100699.30;;;6.63;85.83
62926;BME280;55732;52.248;-0.844;2023-04-21T04:19:05;100694.80;;;6.65;85.89
62926;BME280;55732;52.248;-0.844;2023-04-21T04:21:31;100684.89;;;6.69;85.81
62926;BME280;55732;52.248;-0.844;2023-04-21T04:23:57;100676.71;;;6.71;85.93
62926;BME280;55732;52.248;-0.844;2023-04-21T04:26:23;100672.72;;;6.74;85.95
62926;BME280;55732;52.248;-0.844;2023-04-21T04:28:52;100674.16;;;6.77;85.98
62926;BME280;55732;52.248;-0.844;2023-04-21T04:31:17;100674.02;;;6.79;86.14
62926;BME280;55732;52.248;-0.844;2023-04-21T04:33:43;100674.04;;;6.80;86.34
62926;BME280;55732;52.248;-0.844;2023-04-21T04:36:09;100666.54;;;6.81;86.00
62926;BME280;55732;52.248;-0.844;2023-04-21T04:38:38;100664.45;;;6.82;86.39
62926;BME280;55732;52.248;-0.844;2023-04-21T04:41:04;100665.70;;;6.83;86.66
62926;BME280;55732;52.248;-0.844;2023-04-21T04:43:30;100669.90;;;6.84;86.80
62926;BME280;55732;52.248;-0.844;2023-04-21T04:46:04;100672.01;;;6.84;87.03
62926;BME280;55732;52.248;-0.844;2023-04-21T04:48:30;100671.48;;;6.85;87.01
62926;BME280;55732;52.248;-0.844;2023-04-21T04:50:56;100671.11;;;6.84;87.28
62926;BME280;55732;52.248;-0.844;2023-04-21T04:53:21;100663.07;;;6.84;87.30
62926;BME280;55732;52.248;-0.844;2023-04-21T04:55:47;100661.14;;;6.85;87.07
62926;BME280;55732;52.248;-0.844;2023-04-21T04:58:13;100663.42;;;6.84;87.51
62926;BME280;55732;52.248;-0.844;2023-04-21T05:00:38;100659.92;;;6.84;87.46
62926;BME280;55732;52.248;-0.844;2023-04-21T05:03:04;100653.27;;;6.85;87.57
62926;BME280;55732;52.248;-0.844;2023-04-21T05:05:29;100649.27;;;6.86;87.24
62926;BME280;55732;52.248;-0.844;2023-04-21T05:07:55;100652.98;;;6.88;87.15
62926;BME280;55732;52.248;-0.844;2023-04-21T05:10:21;100652.14;;;6.90;87.47
62926;BME280;55732;52.248;-0.844;2023-04-21T05:12:47;100649.68;;;6.90;87.40
62926;BME280;55732;52.248;-0.844;2023-04-21T05:15:13;100645.46;;;6.89;87.54
62926;BME280;55732;52.248;-0.844;2023-04-21T05:17:38;100643.71;;;6.88;87.68
62926;BME280;55732;52.248;-0.844;2023-04-21T05:20:05;100642.51;;;6.90;87.67
62926;BME280;55732;52.248;-0.844;2023-04-21T05:22:31;100641.46;;;6.90;88.00
62926;BME280;55732;52.248;-0.844;2023-04-21T05:24:56;100640.25;;;6.91;88.04
62926;BME280;55732;52.248;-0.844;2023-04-21T05:27:21;100639.73;;;6.92;87.70
62926;BME280;55732;52.248;-0.844;2023-04-21T05:29:47;100640.65;;;6.94;87.77
62926;BME280;55732;52.248;-0.844;2023-04-21T05:32:12;100636.30;;;6.95;88.11
62926;BME280;55732;52.248;-0.844;2023-04-21T05:34:38;100637.36;;;6.97;87.96
62926;BME280;55732;52.248;-0.844;2023-04-21T05:37:03;100634.04;;;6.98;88.00
62926;BME280;55732;52.248;-0.844;2023-04-21T05:39:29;100633.88;;;6.99;87.89
62926;BME280;55732;52.248;-0.844;2023-04-21T05:41:55;100631.07;;;6.99;87.99
62926;BME280;55732;52.248;-0.844;2023-04-21T05:44:20;100629.86;;;7.00;88.21
62926;BME280;55732;52.248;-0.844;2023-04-21T05:46:46;100629.71;;;7.01;87.96
62926;BME280;55732;52.248;-0.844;2023-04-21T05:49:11;100626.21;;;7.01;87.81
62926;BME280;55732;52.248;-0.844;2023-04-21T05:51:36;100625.16;;;7.01;87.39
62926;BME280;55732;52.248;-0.844;2023-04-21T05:54:02;100623.92;;;7.01;87.62
62926;BME280;55732;52.248;-0.844;2023-04-21T05:56:27;100618.36;;;7.02;87.35
62926;BME280;55732;52.248;-0.844;2023-04-21T05:58:53;100613.65;;;7.03;87.14
62926;BME280;55732;52.248;-0.844;2023-04-21T06:01:18;100608.73;;;7.03;86.74
62926;BME280;55732;52.248;-0.844;2023-04-21T06:03:44;100603.48;;;7.03;86.32
62926;BME280;55732;52.248;-0.844;2023-04-21T06:06:09;100601.59;;;7.05;86.34
62926;BME280;55732;52.248;-0.844;2023-04-21T06:08:35;100599.85;;;7.05;86.14
62926;BME280;55732;52.248;-0.844;2023-04-21T06:11:01;100602.13;;;7.06;86.02
62926;BME280;55732;52.248;-0.844;2023-04-21T06:13:26;100600.53;;;7.04;86.06
62926;BME280;55732;52.248;-0.844;2023-04-21T06:15:55;100595.63;;;7.04;86.07
62926;BME280;55732;52.248;-0.844;2023-04-21T06:18:20;100588.63;;;7.04;86.15
62926;BME280;55732;52.248;-0.844;2023-04-21T06:20:53;100581.64;;;7.05;86.18
62926;BME280;55732;52.248;-0.844;2023-04-21T06:23:19;100579.02;;;7.06;86.15
62926;BME280;55732;52.248;-0.844;2023-04-21T06:25:45;100573.78;;;7.08;86.12
62926;BME280;55732;52.248;-0.844;2023-04-21T06:28:11;100571.88;;;7.10;86.39
62926;BME280;55732;52.248;-0.844;2023-04-21T06:30:36;100564.02;;;7.12;86.17
62926;BME280;55732;52.248;-0.844;2023-04-21T06:33:02;100554.61;;;7.14;86.27
62926;BME280;55732;52.248;-0.844;2023-04-21T06:35:29;100548.85;;;7.15;86.10
62926;BME280;55732;52.248;-0.844;2023-04-21T06:37:55;100550.80;;;7.17;85.99
62926;BME280;55732;52.248;-0.844;2023-04-21T06:40:20;100542.23;;;7.18;85.70
62926;BME280;55732;52.248;-0.844;2023-04-21T06:42:46;100538.73;;;7.20;85.52
62926;BME280;55732;52.248;-0.844;2023-04-21T06:45:11;100534.23;;;7.24;85.42
62926;BME280;55732;52.248;-0.844;2023-04-21T06:47:36;100519.94;;;7.30;85.13
62926;BME280;55732;52.248;-0.844;2023-04-21T06:50:02;100517.73;;;7.37;85.13
62926;BME280;55732;52.248;-0.844;2023-04-21T06:52:27;100521.49;;;7.43;84.99
62926;BME280;55732;52.248;-0.844;2023-04-21T06:54:53;100511.89;;;7.48;84.71
62926;BME280;55732;52.248;-0.844;2023-04-21T06:57:18;100514.92;;;7.51;84.47
62926;BME280;55732;52.248;-0.844;2023-04-21T06:59:44;100522.98;;;7.52;84.37
62926;BME280;55732;52.248;-0.844;2023-04-21T07:02:09;100518.24;;;7.51;84.19
62926;BME280;55732;52.248;-0.844;2023-04-21T07:04:34;100513.52;;;7.52;83.97
62926;BME280;55732;52.248;-0.844;2023-04-21T07:07:00;100516.36;;;7.54;83.93
62926;BME280;55732;52.248;-0.844;2023-04-21T07:09:25;100506.02;;;7.58;83.87
62926;BME280;55732;52.248;-0.844;2023-04-21T07:11:53;100489.60;;;7.62;83.61
62926;BME280;55732;52.248;-0.844;2023-04-21T07:14:19;100484.92;;;7.68;83.86
62926;BME280;55732;52.248;-0.844;2023-04-21T07:16:45;100484.30;;;7.75;83.94
62926;BME280;55732;52.248;-0.844;2023-04-21T07:19:10;100470.15;;;7.82;83.56
62926;BME280;55732;52.248;-0.844;2023-04-21T07:21:36;100468.58;;;7.83;83.22
62926;BME280;55732;52.248;-0.844;2023-04-21T07:24:02;100474.36;;;7.83;83.30
62926;BME280;55732;52.248;-0.844;2023-04-21T07:26:27;100475.91;;;7.80;83.30
62926;BME280;55732;52.248;-0.844;2023-04-21T07:28:53;100469.24;;;7.78;83.21
62926;BME280;55732;52.248;-0.844;2023-04-21T07:31:20;100464.69;;;7.76;82.98
62926;BME280;55732;52.248;-0.844;2023-04-21T07:33:45;100455.56;;;7.76;82.97
62926;BME280;55732;52.248;-0.844;2023-04-21T07:36:11;100448.02;;;7.76;83.23
62926;BME280;55732;52.248;-0.844;2023-04-21T07:38:36;100451.52;;;7.74;83.13
62926;BME280;55732;52.248;-0.844;2023-04-21T07:41:03;100452.00;;;7.70;83.20
62926;BME280;55732;52.248;-0.844;2023-04-21T07:43:29;100450.59;;;7.68;83.47
62926;BME280;55732;52.248;-0.844;2023-04-21T07:45:56;100447.14;;;7.74;83.78
62926;BME280;55732;52.248;-0.844;2023-04-21T07:48:22;100441.73;;;7.79;83.59
62926;BME280;55732;52.248;-0.844;2023-04-21T07:50:47;100436.36;;;7.86;83.46
62926;BME280;55732;52.248;-0.844;2023-04-21T07:53:14;100433.60;;;7.93;83.31
62926;BME280;55732;52.248;-0.844;2023-04-21T07:55:40;100422.60;;;7.99;83.27
62926;BME280;55732;52.248;-0.844;2023-04-21T07:58:05;100428.79;;;8.07;83.43
62926;BME280;55732;52.248;-0.844;2023-04-21T08:00:30;100428.30;;;8.12;83.21
62926;BME280;55732;52.248;-0.844;2023-04-21T08:02:56;100426.06;;;8.20;83.48
62926;BME280;55732;52.248;-0.844;2023-04-21T08:05:21;100418.98;;;8.36;83.34
62926;BME280;55732;52.248;-0.844;2023-04-21T08:07:47;100409.43;;;8.56;82.92
62926;BME280;55732;52.248;-0.844;2023-04-21T08:10:12;100410.71;;;8.73;82.78
62926;BME280;55732;52.248;-0.844;2023-04-21T08:12:37;100416.02;;;8.84;82.83
62926;BME280;55732;52.248;-0.844;2023-04-21T08:15:03;100417.46;;;8.95;82.59
62926;BME280;55732;52.248;-0.844;2023-04-21T08:17:30;100416.42;;;9.04;82.31
62926;BME280;55732;52.248;-0.844;2023-04-21T08:19:55;100416.63;;;9.13;82.18
62926;BME280;55732;52.248;-0.844;2023-04-21T08:22:21;100415.77;;;9.35;81.95
62926;BME280;55732;52.248;-0.844;2023-04-21T08:24:47;100418.59;;;9.58;81.40
62926;BME280;55732;52.248;-0.844;2023-04-21T08:27:12;100422.11;;;9.70;80.29
62926;BME280;55732;52.248;-0.844;2023-04-21T08:29:37;100411.39;;;9.78;80.16
62926;BME280;55732;52.248;-0.844;2023-04-21T08:32:03;100409.63;;;9.83;80.35
62926;BME280;55732;52.248;-0.844;2023-04-21T08:34:28;100414.71;;;9.90;80.07
62926;BME280;55732;52.248;-0.844;2023-04-21T08:36:54;100415.07;;;9.83;80.54
62926;BME280;55732;52.248;-0.844;2023-04-21T08:39:20;100414.02;;;9.85;80.64
62926;BME280;55732;52.248;-0.844;2023-04-21T08:41:46;100412.61;;;9.83;80.40
62926;BME280;55732;52.248;-0.844;2023-04-21T08:44:12;100412.09;;;9.71;80.38
62926;BME280;55732;52.248;-0.844;2023-04-21T08:46:38;100405.42;;;9.62;80.65
62926;BME280;55732;52.248;-0.844;2023-04-21T08:49:04;100396.98;;;9.61;81.20
62926;BME280;55732;52.248;-0.844;2023-04-21T08:51:30;100397.67;;;9.71;81.02
62926;BME280;55732;52.248;-0.844;2023-04-21T08:53:56;100396.27;;;9.77;80.75
62926;BME280;55732;52.248;-0.844;2023-04-21T08:56:25;100393.09;;;9.85;80.39
62926;BME280;55732;52.248;-0.844;2023-04-21T08:58:51;100392.52;;;10.05;79.92
62926;BME280;55732;52.248;-0.844;2023-04-21T09:01:17;100389.80;;;10.41;79.58
62926;BME280;55732;52.248;-0.844;2023-04-21T09:03:43;100389.88;;;10.67;78.38
62926;BME280;55732;52.248;-0.844;2023-04-21T09:06:09;100386.53;;;10.69;77.52
62926;BME280;55732;52.248;-0.844;2023-04-21T09:08:41;100379.00;;;10.58;77.85
62926;BME280;55732;52.248;-0.844;2023-04-21T09:11:06;100375.38;;;10.78;77.85
62926;BME280;55732;52.248;-0.844;2023-04-21T09:13:34;100385.30;;;10.98;76.52
62926;BME280;55732;52.248;-0.844;2023-04-21T09:16:02;100379.47;;;10.70;75.98
62926;BME280;55732;52.248;-0.844;2023-04-21T09:18:29;100381.36;;;10.41;76.38
62926;BME280;55732;52.248;-0.844;2023-04-21T09:23:40;100388.82;;;10.11;76.93
62926;BME280;55732;52.248;-0.844;2023-04-21T09:26:06;100390.58;;;10.13;76.59
62926;BME280;55732;52.248;-0.844;2023-04-21T09:28:32;100396.02;;;10.19;77.32
62926;BME280;55732;52.248;-0.844;2023-04-21T09:30:58;100390.74;;;10.17;77.03
62926;BME280;55732;52.248;-0.844;2023-04-21T09:33:23;100391.81;;;10.14;77.71
62926;BME280;55732;52.248;-0.844;2023-04-21T09:35:49;100397.44;;;10.12;78.39
62926;BME280;55732;52.248;-0.844;2023-04-21T09:38:21;100396.73;;;10.13;78.20
62926;BME280;55732;52.248;-0.844;2023-04-21T09:40:58;100399.20;;;10.07;78.13
62926;BME280;55732;52.248;-0.844;2023-04-21T09:43:24;100396.59;;;9.95;78.61
62926;BME280;55732;52.248;-0.844;2023-04-21T09:45:50;100399.77;;;9.82;78.63
62926;BME280;55732;52.248;-0.844;2023-04-21T09:48:17;100399.79;;;9.66;77.98
62926;BME280;55732;52.248;-0.844;2023-04-21T09:50:42;100404.36;;;9.47;77.96
62926;BME280;55732;52.248;-0.844;2023-04-21T09:53:13;100405.58;;;9.28;78.84
62926;BME280;55732;52.248;-0.844;2023-04-21T09:55:44;100405.40;;;9.19;79.17
62926;BME280;55732;52.248;-0.844;2023-04-21T09:58:15;100410.30;;;9.12;79.16
62926;BME280;55732;52.248;-0.844;2023-04-21T10:00:45;100414.14;;;9.04;79.62
62926;BME280;55732;52.248;-0.844;2023-04-21T10:03:11;100408.34;;;9.01;79.61
62926;BME280;55732;52.248;-0.844;2023-04-21T10:05:38;100411.14;;;9.01;79.73
62926;BME280;55732;52.248;-0.844;2023-04-21T10:08:04;100404.65;;;9.00;79.92
62926;BME280;55732;52.248;-0.844;2023-04-21T10:10:32;100399.38;;;8.98;80.55
62926;BME280;55732;52.248;-0.844;2023-04-21T10:13:00;100395.16;;;8.98;81.10
62926;BME280;55732;52.248;-0.844;2023-04-21T10:21:19;100392.20;;;9.19;80.65
62926;BME280;55732;52.248;-0.844;2023-04-21T10:23:50;100390.30;;;9.30;79.89
62926;BME280;55732;52.248;-0.844;2023-04-21T10:26:20;100381.34;;;9.38;80.24
62926;BME280;55732;52.248;-0.844;2023-04-21T10:29:00;100381.18;;;9.42;80.39
62926;BME280;55732;52.248;-0.844;2023-04-21T10:31:34;100377.12;;;9.44;80.30
62926;BME280;55732;52.248;-0.844;2023-04-21T10:36:49;100371.86;;;9.52;81.13
62926;BME280;55732;52.248;-0.844;2023-04-21T10:44:40;100370.89;;;10.04;78.76
62926;BME280;55732;52.248;-0.844;2023-04-21T10:47:06;100366.38;;;10.46;77.78
62926;BME280;55732;52.248;-0.844;2023-04-21T10:49:37;100359.20;;;10.74;76.44
62926;BME280;55732;52.248;-0.844;2023-04-21T10:52:04;100363.18;;;10.56;77.13
62926;BME280;55732;52.248;-0.844;2023-04-21T10:57:15;100365.60;;;10.13;77.39
62926;BME280;55732;52.248;-0.844;2023-04-21T10:59:41;100364.54;;;10.11;78.04
62926;BME280;55732;52.248;-0.844;2023-04-21T11:02:09;100361.84;;;10.33;77.46
62926;BME280;55732;52.248;-0.844;2023-04-21T11:04:35;100360.61;;;10.74;77.07
62926;BME280;55732;52.248;-0.844;2023-04-21T11:07:08;100360.08;;;11.04;76.41
62926;BME280;55732;52.248;-0.844;2023-04-21T11:09:36;100356.37;;;11.05;76.68
62926;BME280;55732;52.248;-0.844;2023-04-21T11:12:06;100359.48;;;11.12;75.80
62926;BME280;55732;52.248;-0.844;2023-04-21T11:14:34;100361.50;;;11.48;73.25
62926;BME280;55732;52.248;-0.844;2023-04-21T11:17:01;100355.74;;;11.82;72.33
62926;BME280;55732;52.248;-0.844;2023-04-21T11:19:26;100356.89;;;11.72;72.30
62926;BME280;55732;52.248;-0.844;2023-04-21T11:21:52;100362.91;;;11.48;71.87
62926;BME280;55732;52.248;-0.844;2023-04-21T11:24:21;100364.06;;;11.36;72.40
62926;BME280;55732;52.248;-0.844;2023-04-21T11:26:47;100362.15;;;11.33;72.77
62926;BME280;55732;52.248;-0.844;2023-04-21T11:29:13;100358.98;;;11.31;72.15
62926;BME280;55732;52.248;-0.844;2023-04-21T11:31:40;100356.95;;;11.23;72.33
62926;BME280;55732;52.248;-0.844;2023-04-21T11:34:07;100354.95;;;11.06;72.61
62926;BME280;55732;52.248;-0.844;2023-04-21T11:36:37;100354.35;;;10.91;72.34
62926;BME280;55732;52.248;-0.844;2023-04-21T11:39:07;100349.89;;;10.71;72.52
62926;BME280;55732;52.248;-0.844;2023-04-21T11:41:35;100345.58;;;10.53;73.31
62926;BME280;55732;52.248;-0.844;2023-04-21T11:44:01;100352.14;;;10.42;74.15
62926;BME280;55732;52.248;-0.844;2023-04-21T11:46:27;100354.64;;;10.34;73.93
62926;BME280;55732;52.248;-0.844;2023-04-21T11:49:04;100366.98;;;10.23;73.61
62926;BME280;55732;52.248;-0.844;2023-04-21T11:51:33;100366.12;;;10.14;73.85
62926;BME280;55732;52.248;-0.844;2023-04-21T11:53:59;100372.99;;;10.07;74.77
62926;BME280;55732;52.248;-0.844;2023-04-21T11:56:25;100376.71;;;9.97;75.81
62926;BME280;55732;52.248;-0.844;2023-04-21T11:58:51;100372.16;;;9.90;76.17
62926;BME280;55732;52.248;-0.844;2023-04-21T12:01:18;100371.29;;;9.87;76.29
62926;BME280;55732;52.248;-0.844;2023-04-21T12:03:51;100372.52;;;9.88;76.51
62926;BME280;55732;52.248;-0.844;2023-04-21T12:06:21;100376.91;;;9.90;76.45
62926;BME280;55732;52.248;-0.844;2023-04-21T12:08:53;100375.66;;;9.93;76.25
62926;BME280;55732;52.248;-0.844;2023-04-21T12:11:18;100373.73;;;9.96;76.18
62926;BME280;55732;52.248;-0.844;2023-04-21T12:13:44;100375.84;;;9.96;76.70
62926;BME280;55732;52.248;-0.844;2023-04-21T12:16:11;100375.11;;;10.01;76.80
62926;BME280;55732;52.248;-0.844;2023-04-21T12:18:37;100374.92;;;10.09;75.11
62926;BME280;55732;52.248;-0.844;2023-04-21T12:21:02;100373.50;;;10.25;74.93
62926;BME280;55732;52.248;-0.844;2023-04-21T12:23:27;100360.90;;;10.51;74.82
62926;BME280;55732;52.248;-0.844;2023-04-21T12:25:53;100356.89;;;10.78;74.28
62926;BME280;55732;52.248;-0.844;2023-04-21T12:28:19;100356.66;;;11.13;72.82
62926;BME280;55732;52.248;-0.844;2023-04-21T12:30:45;100351.66;;;11.44;71.28
62926;BME280;55732;52.248;-0.844;2023-04-21T12:33:11;100356.34;;;11.54;70.92
62926;BME280;55732;52.248;-0.844;2023-04-21T12:35:37;100357.45;;;11.48;70.23
62926;BME280;55732;52.248;-0.844;2023-04-21T12:38:03;100358.05;;;11.39;70.56
62926;BME280;55732;52.248;-0.844;2023-04-21T12:40:29;100362.12;;;11.37;70.22
62926;BME280;55732;52.248;-0.844;2023-04-21T12:42:54;100360.54;;;11.36;69.68
62926;BME280;55732;52.248;-0.844;2023-04-21T12:45:19;100351.92;;;11.33;69.55
62926;BME280;55732;52.248;-0.844;2023-04-21T12:47:45;100353.66;;;11.36;69.56
62926;BME280;55732;52.248;-0.844;2023-04-21T12:50:10;100352.72;;;11.45;68.95
62926;BME280;55732;52.248;-0.844;2023-04-21T12:52:36;100351.75;;;11.53;69.07
62926;BME280;55732;52.248;-0.844;2023-04-21T12:55:02;100352.66;;;11.69;68.84
62926;BME280;55732;52.248;-0.844;2023-04-21T12:57:28;100352.94;;;11.80;68.45
62926;BME280;55732;52.248;-0.844;2023-04-21T12:59:54;100354.26;;;11.90;67.48
62926;BME280;55732;52.248;-0.844;2023-04-21T13:02:20;100350.77;;;12.02;66.40
62926;BME280;55732;52.248;-0.844;2023-04-21T13:04:45;100357.25;;;12.07;66.19